sensor_id;sensor_type;location;lat;lon;timestamp;temperature;humidity
31074;DHT22;17730;53.552;9.940;2023-04-16T00:01:07;8.10;8.00
31074;DHT22;17730;53.552;9.940;2023-04-16T00:03:33;8.00;11.60
31074;DHT22;17730;53.552;9.940;2023-04-16T00:05:58;8.00;18.50
31074;DHT22;17730;53.552;9.940;2023-04-16T00:08:24;8.00;18.80
31074;DHT22;17730;53.552;9.940;2023-04-16T00:10:50;7.90;21.20
31074;DHT22;17730;53.552;9.940;2023-04-16T00:13:15;7.80;28.90
31074;DHT22;17730;53.552;9.940;2023-04-16T00:15:41;7.80;33.30
31074;DHT22;17730;53.552;9.940;2023-04-16T00:18:06;7.80;48.10
31074;DHT22;17730;53.552;9.940;2023-04-16T00:20:32;7.80;48.50
31074;DHT22;17730;53.552;9.940;2023-04-16T00:22:57;7.80;49.30
31074;DHT22;17730;53.552;9.940;2023-04-16T00:25:23;7.80;50.80
31074;DHT22;17730;53.552;9.940;2023-04-16T00:27:48;7.80;46.50
31074;DHT22;17730;53.552;9.940;2023-04-16T00:30:13;7.70;46.60
31074;DHT22;17730;53.552;9.940;2023-04-16T00:32:39;7.80;45.60
31074;DHT22;17730;53.552;9.940;2023-04-16T00:35:05;7.70;39.60
31074;DHT22;17730;53.552;9.940;2023-04-16T00:37:30;7.70;35.80
31074;DHT22;17730;53.552;9.940;2023-04-16T00:39:56;7.70;34.80
31074;DHT22;17730;53.552;9.940;2023-04-16T00:42:21;7.70;32.70
31074;DHT22;17730;53.552;9.940;2023-04-16T00:44:46;7.70;28.40
31074;DHT22;17730;53.552;9.940;2023-04-16T00:47:12;7.70;25.60
31074;DHT22;17730;53.552;9.940;2023-04-16T00:49:37;7.70;30.80
31074;DHT22;17730;53.552;9.940;2023-04-16T00:52:03;7.70;27.40
31074;DHT22;17730;53.552;9.940;2023-04-16T00:54:29;7.80;25.60
31074;DHT22;17730;53.552;9.940;2023-04-16T00:56:55;7.70;20.60
31074;DHT22;17730;53.552;9.940;2023-04-16T00:59:20;7.80;17.00
31074;DHT22;17730;53.552;9.940;2023-04-16T01:01:46;7.80;14.50
31074;DHT22;17730;53.552;9.940;2023-04-16T01:04:12;7.70;11.40
31074;DHT22;17730;53.552;9.940;2023-04-16T01:06:37;7.80;8.10
31074;DHT22;17730;53.552;9.940;2023-04-16T01:09:02;7.80;2.40
31074;DHT22;17730;53.552;9.940;2023-04-16T01:11:28;7.80;1.00
31074;DHT22;17730;53.552;9.940;2023-04-16T01:13:53;7.80;1.00
31074;DHT22;17730;53.552;9.940;2023-04-16T01:16:19;7.80;1.00
31074;DHT22;17730;53.552;9.940;2023-04-16T01:18:45;7.80;1.00
31074;DHT22;17730;53.552;9.940;2023-04-16T01:21:10;7.80;1.00
31074;DHT22;17730;53.552;9.940;2023-04-16T01:23:36;7.90;1.00
31074;DHT22;17730;53.552;9.940;2023-04-16T01:26:01;7.90;1.00
31074;DHT22;17730;53.552;9.940;2023-04-16T01:28:26;7.90;1.00
31074;DHT22;17730;53.552;9.940;2023-04-16T01:30:52;7.90;1.00
31074;DHT22;17730;53.552;9.940;2023-04-16T01:33:17;7.90;1.00
31074;DHT22;17730;53.552;9.940;2023-04-16T01:35:43;8.00;1.00
31074;DHT22;17730;53.552;9.940;2023-04-16T01:38:09;8.00;1.00
31074;DHT22;17730;53.552;9.940;2023-04-16T01:40:35;8.00;1.00
31074;DHT22;17730;53.552;9.940;2023-04-16T01:43:00;8.00;1.00
31074;DHT22;17730;53.552;9.940;2023-04-16T01:45:26;8.00;99.90
31074;DHT22;17730;53.552;9.940;2023-04-16T01:47:51;8.00;99.90
31074;DHT22;17730;53.552;9.940;2023-04-16T01:50:20;8.00;99.90
31074;DHT22;17730;53.552;9.940;2023-04-16T01:52:45;8.00;99.90
31074;DHT22;17730;53.552;9.940;2023-04-16T01:55:11;8.10;99.90
31074;DHT22;17730;53.552;9.940;2023-04-16T01:57:37;8.10;99.90
31074;DHT22;17730;53.552;9.940;2023-04-16T02:00:02;8.10;99.90
31074;DHT22;17730;53.552;9.940;2023-04-16T02:02:29;8.20;99.90
31074;DHT22;17730;53.552;9.940;2023-04-16T02:04:55;8.20;99.90
31074;DHT22;17730;53.552;9.940;2023-04-16T02:07:21;8.10;99.90
31074;DHT22;17730;53.552;9.940;2023-04-16T02:09:47;8.10;99.90
31074;DHT22;17730;53.552;9.940;2023-04-16T02:12:14;8.20;99.90
31074;DHT22;17730;53.552;9.940;2023-04-16T02:14:39;8.20;99.90
31074;DHT22;17730;53.552;9.940;2023-04-16T02:17:05;8.20;99.90
31074;DHT22;17730;53.552;9.940;2023-04-16T02:19:31;8.20;99.90
31074;DHT22;17730;53.552;9.940;2023-04-16T02:21:56;8.20;99.90
31074;DHT22;17730;53.552;9.940;2023-04-16T02:24:21;8.20;99.90
31074;DHT22;17730;53.552;9.940;2023-04-16T02:26:47;8.20;99.90
31074;DHT22;17730;53.552;9.940;2023-04-16T02:29:12;8.20;99.90
31074;DHT22;17730;53.552;9.940;2023-04-16T02:31:38;8.20;99.90
31074;DHT22;17730;53.552;9.940;2023-04-16T02:34:03;8.20;99.90
31074;DHT22;17730;53.552;9.940;2023-04-16T02:36:29;8.20;99.90
31074;DHT22;17730;53.552;9.940;2023-04-16T02:38:56;8.30;99.90
31074;DHT22;17730;53.552;9.940;2023-04-16T02:41:21;8.30;99.90
31074;DHT22;17730;53.552;9.940;2023-04-16T02:43:47;8.30;99.90
31074;DHT22;17730;53.552;9.940;2023-04-16T02:46:12;8.30;99.90
31074;DHT22;17730;53.552;9.940;2023-04-16T02:48:38;8.30;99.90
31074;DHT22;17730;53.552;9.940;2023-04-16T02:51:03;8.30;99.90
31074;DHT22;17730;53.552;9.940;2023-04-16T02:53:29;8.30;99.90
31074;DHT22;17730;53.552;9.940;2023-04-16T02:55:55;8.30;99.90
31074;DHT22;17730;53.552;9.940;2023-04-16T02:58:21;8.40;99.90
31074;DHT22;17730;53.552;9.940;2023-04-16T03:00:46;8.30;99.90
31074;DHT22;17730;53.552;9.940;2023-04-16T03:03:12;8.40;99.90
31074;DHT22;17730;53.552;9.940;2023-04-16T03:05:38;8.40;99.90
31074;DHT22;17730;53.552;9.940;2023-04-16T03:08:03;8.40;99.90
31074;DHT22;17730;53.552;9.940;2023-04-16T03:10:29;8.40;99.90
31074;DHT22;17730;53.552;9.940;2023-04-16T03:12:55;8.40;99.90
31074;DHT22;17730;53.552;9.940;2023-04-16T03:15:20;8.40;99.90
31074;DHT22;17730;53.552;9.940;2023-04-16T03:17:46;8.40;99.90
31074;DHT22;17730;53.552;9.940;2023-04-16T03:20:11;8.40;99.90
31074;DHT22;17730;53.552;9.940;2023-04-16T03:22:40;8.40;99.90
31074;DHT22;17730;53.552;9.940;2023-04-16T03:25:06;8.50;99.90
31074;DHT22;17730;53.552;9.940;2023-04-16T03:27:32;8.50;99.90
31074;DHT22;17730;53.552;9.940;2023-04-16T03:29:57;8.50;99.90
31074;DHT22;17730;53.552;9.940;2023-04-16T03:32:23;8.40;99.90
31074;DHT22;17730;53.552;9.940;2023-04-16T03:34:48;8.40;99.90
31074;DHT22;17730;53.552;9.940;2023-04-16T03:37:14;8.40;99.90
31074;DHT22;17730;53.552;9.940;2023-04-16T03:39:39;8.40;99.90
31074;DHT22;17730;53.552;9.940;2023-04-16T03:42:05;8.40;99.90
31074;DHT22;17730;53.552;9.940;2023-04-16T03:44:30;8.50;99.90
31074;DHT22;17730;53.552;9.940;2023-04-16T03:46:56;8.50;99.90
31074;DHT22;17730;53.552;9.940;2023-04-16T03:49:21;8.50;99.90
31074;DHT22;17730;53.552;9.940;2023-04-16T03:51:47;8.50;99.90
31074;DHT22;17730;53.552;9.940;2023-04-16T03:54:12;8.50;99.90
31074;DHT22;17730;53.552;9.940;2023-04-16T03:56:40;8.50;99.90
31074;DHT22;17730;53.552;9.940;2023-04-16T03:59:06;8.50;99.90
31074;DHT22;17730;53.552;9.940;2023-04-16T04:01:31;8.50;99.90
31074;DHT22;17730;53.552;9.940;2023-04-16T04:03:57;8.50;99.90
31074;DHT22;17730;53.552;9.940;2023-04-16T04:06:22;8.50;99.90
31074;DHT22;17730;53.552;9.940;2023-04-16T04:08:48;8.50;99.90
31074;DHT22;17730;53.552;9.940;2023-04-16T04:11:13;8.50;99.90
31074;DHT22;17730;53.552;9.940;2023-04-16T04:13:39;8.60;99.90
31074;DHT22;17730;53.552;9.940;2023-04-16T04:16:04;8.50;99.90
31074;DHT22;17730;53.552;9.940;2023-04-16T04:18:30;8.60;99.90
31074;DHT22;17730;53.552;9.940;2023-04-16T04:20:56;8.60;99.90
31074;DHT22;17730;53.552;9.940;2023-04-16T04:23:22;8.50;99.90
31074;DHT22;17730;53.552;9.940;2023-04-16T04:25:47;8.60;99.90
31074;DHT22;17730;53.552;9.940;2023-04-16T04:28:13;8.60;99.90
31074;DHT22;17730;53.552;9.940;2023-04-16T04:30:38;8.70;99.90
31074;DHT22;17730;53.552;9.940;2023-04-16T04:33:04;8.70;99.90
31074;DHT22;17730;53.552;9.940;2023-04-16T04:35:29;8.70;99.90
31074;DHT22;17730;53.552;9.940;2023-04-16T04:37:55;8.70;99.90
31074;DHT22;17730;53.552;9.940;2023-04-16T04:40:20;8.60;99.90
31074;DHT22;17730;53.552;9.940;2023-04-16T04:42:46;8.60;99.90
31074;DHT22;17730;53.552;9.940;2023-04-16T04:45:11;8.60;99.90
31074;DHT22;17730;53.552;9.940;2023-04-16T04:47:37;8.60;99.90
31074;DHT22;17730;53.552;9.940;2023-04-16T04:50:02;8.60;99.90
31074;DHT22;17730;53.552;9.940;2023-04-16T04:52:28;8.60;99.90
31074;DHT22;17730;53.552;9.940;2023-04-16T04:54:53;8.60;99.90
31074;DHT22;17730;53.552;9.940;2023-04-16T04:57:19;8.60;99.90
31074;DHT22;17730;53.552;9.940;2023-04-16T04:59:44;8.70;99.90
31074;DHT22;17730;53.552;9.940;2023-04-16T05:02:10;8.70;99.90
31074;DHT22;17730;53.552;9.940;2023-04-16T05:04:35;8.70;99.90
31074;DHT22;17730;53.552;9.940;2023-04-16T05:07:01;8.80;99.90
31074;DHT22;17730;53.552;9.940;2023-04-16T05:09:26;8.80;99.90
31074;DHT22;17730;53.552;9.940;2023-04-16T05:11:52;8.80;99.90
31074;DHT22;17730;53.552;9.940;2023-04-16T05:14:18;8.80;99.90
31074;DHT22;17730;53.552;9.940;2023-04-16T05:16:43;8.80;99.90
31074;DHT22;17730;53.552;9.940;2023-04-16T05:19:09;8.80;99.90
31074;DHT22;17730;53.552;9.940;2023-04-16T05:21:34;8.90;99.90
31074;DHT22;17730;53.552;9.940;2023-04-16T05:24:00;9.00;99.90
31074;DHT22;17730;53.552;9.940;2023-04-16T05:26:25;9.00;99.90
31074;DHT22;17730;53.552;9.940;2023-04-16T05:28:50;9.00;99.90
31074;DHT22;17730;53.552;9.940;2023-04-16T05:31:16;9.00;99.90
31074;DHT22;17730;53.552;9.940;2023-04-16T05:33:41;9.00;99.90
31074;DHT22;17730;53.552;9.940;2023-04-16T05:36:07;9.10;99.90
31074;DHT22;17730;53.552;9.940;2023-04-16T05:38:32;9.10;99.90
31074;DHT22;17730;53.552;9.940;2023-04-16T05:40:58;9.10;99.90
31074;DHT22;17730;53.552;9.940;2023-04-16T05:43:23;9.10;99.90
31074;DHT22;17730;53.552;9.940;2023-04-16T05:45:49;9.10;99.90
31074;DHT22;17730;53.552;9.940;2023-04-16T05:48:14;9.10;99.90
31074;DHT22;17730;53.552;9.940;2023-04-16T05:50:40;9.10;91.10
31074;DHT22;17730;53.552;9.940;2023-04-16T05:53:06;9.10;92.50
31074;DHT22;17730;53.552;9.940;2023-04-16T05:55:32;9.10;98.90
31074;DHT22;17730;53.552;9.940;2023-04-16T05:57:57;9.10;99.90
31074;DHT22;17730;53.552;9.940;2023-04-16T06:00:22;9.20;99.90
31074;DHT22;17730;53.552;9.940;2023-04-16T06:02:49;9.20;99.90
31074;DHT22;17730;53.552;9.940;2023-04-16T06:05:14;9.20;34.00
31074;DHT22;17730;53.552;9.940;2023-04-16T06:07:40;9.20;69.30
31074;DHT22;17730;53.552;9.940;2023-04-16T06:10:05;9.20;9.50
31074;DHT22;17730;53.552;9.940;2023-04-16T06:12:31;9.10;52.00
31074;DHT22;17730;53.552;9.940;2023-04-16T06:14:57;9.20;10.00
31074;DHT22;17730;53.552;9.940;2023-04-16T06:17:22;9.20;20.70
31074;DHT22;17730;53.552;9.940;2023-04-16T06:19:48;9.30;1.00
31074;DHT22;17730;53.552;9.940;2023-04-16T06:22:13;9.30;1.00
31074;DHT22;17730;53.552;9.940;2023-04-16T06:24:39;9.30;99.90
31074;DHT22;17730;53.552;9.940;2023-04-16T06:27:04;9.30;99.90
31074;DHT22;17730;53.552;9.940;2023-04-16T06:29:30;9.30;1.00
31074;DHT22;17730;53.552;9.940;2023-04-16T06:31:55;9.30;99.90
31074;DHT22;17730;53.552;9.940;2023-04-16T06:34:21;9.30;99.90
31074;DHT22;17730;53.552;9.940;2023-04-16T06:36:46;9.40;99.90
31074;DHT22;17730;53.552;9.940;2023-04-16T06:39:12;9.50;99.90
31074;DHT22;17730;53.552;9.940;2023-04-16T06:41:37;9.50;99.90
31074;DHT22;17730;53.552;9.940;2023-04-16T06:44:03;9.40;99.90
31074;DHT22;17730;53.552;9.940;2023-04-16T06:46:28;9.40;99.90
31074;DHT22;17730;53.552;9.940;2023-04-16T06:48:53;9.50;99.90
31074;DHT22;17730;53.552;9.940;2023-04-16T06:51:19;9.50;99.90
31074;DHT22;17730;53.552;9.940;2023-04-16T06:53:45;9.40;99.90
31074;DHT22;17730;53.552;9.940;2023-04-16T06:56:10;9.50;99.90
31074;DHT22;17730;53.552;9.940;2023-04-16T06:58:35;9.50;99.90
31074;DHT22;17730;53.552;9.940;2023-04-16T07:01:01;9.40;99.90
31074;DHT22;17730;53.552;9.940;2023-04-16T07:03:26;9.40;99.90
31074;DHT22;17730;53.552;9.940;2023-04-16T07:05:52;9.40;99.90
31074;DHT22;17730;53.552;9.940;2023-04-16T07:08:17;9.50;99.90
31074;DHT22;17730;53.552;9.940;2023-04-16T07:10:43;9.50;99.90
31074;DHT22;17730;53.552;9.940;2023-04-16T07:13:09;9.60;99.90
31074;DHT22;17730;53.552;9.940;2023-04-16T07:15:34;9.50;89.50
31074;DHT22;17730;53.552;9.940;2023-04-16T07:18:00;9.50;99.90
31074;DHT22;17730;53.552;9.940;2023-04-16T07:20:25;9.60;99.90
31074;DHT22;17730;53.552;9.940;2023-04-16T07:22:51;9.70;99.90
31074;DHT22;17730;53.552;9.940;2023-04-16T07:25:16;9.80;1.00
31074;DHT22;17730;53.552;9.940;2023-04-16T07:27:42;10.00;99.90
31074;DHT22;17730;53.552;9.940;2023-04-16T07:30:07;10.00;99.90
31074;DHT22;17730;53.552;9.940;2023-04-16T07:32:33;9.90;99.90
31074;DHT22;17730;53.552;9.940;2023-04-16T07:34:59;9.90;17.90
31074;DHT22;17730;53.552;9.940;2023-04-16T07:37:24;10.00;19.20
31074;DHT22;17730;53.552;9.940;2023-04-16T07:39:50;10.00;99.90
31074;DHT22;17730;53.552;9.940;2023-04-16T07:42:16;10.10;99.90
31074;DHT22;17730;53.552;9.940;2023-04-16T07:44:42;10.20;99.90
31074;DHT22;17730;53.552;9.940;2023-04-16T07:47:08;10.20;1.00
31074;DHT22;17730;53.552;9.940;2023-04-16T07:49:33;10.10;99.90
31074;DHT22;17730;53.552;9.940;2023-04-16T07:51:59;10.10;99.90
31074;DHT22;17730;53.552;9.940;2023-04-16T07:54:24;10.10;1.00
31074;DHT22;17730;53.552;9.940;2023-04-16T07:56:50;10.00;99.90
31074;DHT22;17730;53.552;9.940;2023-04-16T07:59:16;10.00;1.00
31074;DHT22;17730;53.552;9.940;2023-04-16T08:01:41;10.00;1.00
31074;DHT22;17730;53.552;9.940;2023-04-16T08:04:06;10.00;1.00
31074;DHT22;17730;53.552;9.940;2023-04-16T08:06:32;10.20;72.00
31074;DHT22;17730;53.552;9.940;2023-04-16T08:08:57;10.40;99.90
31074;DHT22;17730;53.552;9.940;2023-04-16T08:11:23;10.50;99.90
31074;DHT22;17730;53.552;9.940;2023-04-16T08:13:48;10.40;99.90
31074;DHT22;17730;53.552;9.940;2023-04-16T08:16:14;10.50;99.90
31074;DHT22;17730;53.552;9.940;2023-04-16T08:18:39;10.50;99.90
31074;DHT22;17730;53.552;9.940;2023-04-16T08:21:05;10.50;99.90
31074;DHT22;17730;53.552;9.940;2023-04-16T08:23:30;10.40;99.90
31074;DHT22;17730;53.552;9.940;2023-04-16T08:25:56;10.50;1.00
31074;DHT22;17730;53.552;9.940;2023-04-16T08:28:22;10.50;1.00
31074;DHT22;17730;53.552;9.940;2023-04-16T08:30:47;10.70;99.90
31074;DHT22;17730;53.552;9.940;2023-04-16T08:33:13;10.90;99.90
31074;DHT22;17730;53.552;9.940;2023-04-16T08:35:38;11.00;95.00
31074;DHT22;17730;53.552;9.940;2023-04-16T08:38:04;11.00;99.90
31074;DHT22;17730;53.552;9.940;2023-04-16T08:40:31;11.10;99.90
31074;DHT22;17730;53.552;9.940;2023-04-16T08:42:59;11.30;99.90
31074;DHT22;17730;53.552;9.940;2023-04-16T08:45:27;11.70;1.00
31074;DHT22;17730;53.552;9.940;2023-04-16T08:47:52;11.50;99.90
31074;DHT22;17730;53.552;9.940;2023-04-16T08:50:21;11.40;99.90
31074;DHT22;17730;53.552;9.940;2023-04-16T08:52:52;11.60;99.90
31074;DHT22;17730;53.552;9.940;2023-04-16T08:55:21;11.40;99.90
31074;DHT22;17730;53.552;9.940;2023-04-16T08:57:56;11.00;99.90
31074;DHT22;17730;53.552;9.940;2023-04-16T09:00:22;10.90;99.90
31074;DHT22;17730;53.552;9.940;2023-04-16T09:02:48;11.10;1.00
31074;DHT22;17730;53.552;9.940;2023-04-16T09:05:14;11.30;99.90
31074;DHT22;17730;53.552;9.940;2023-04-16T09:07:45;11.30;1.00
31074;DHT22;17730;53.552;9.940;2023-04-16T09:10:11;11.50;99.90
31074;DHT22;17730;53.552;9.940;2023-04-16T09:12:36;11.40;99.90
31074;DHT22;17730;53.552;9.940;2023-04-16T09:15:02;11.30;1.00
31074;DHT22;17730;53.552;9.940;2023-04-16T09:17:29;11.40;99.90
31074;DHT22;17730;53.552;9.940;2023-04-16T09:19:55;11.60;99.90
31074;DHT22;17730;53.552;9.940;2023-04-16T09:22:20;11.50;99.90
31074;DHT22;17730;53.552;9.940;2023-04-16T09:24:46;11.60;99.90
31074;DHT22;17730;53.552;9.940;2023-04-16T09:27:11;11.70;99.90
31074;DHT22;17730;53.552;9.940;2023-04-16T09:29:38;11.80;45.80
31074;DHT22;17730;53.552;9.940;2023-04-16T09:32:04;11.90;22.10
31074;DHT22;17730;53.552;9.940;2023-04-16T09:34:34;11.90;1.00
31074;DHT22;17730;53.552;9.940;2023-04-16T09:37:15;12.00;1.00
31074;DHT22;17730;53.552;9.940;2023-04-16T09:39:41;11.90;5.20
31074;DHT22;17730;53.552;9.940;2023-04-16T09:42:07;12.30;1.00
31074;DHT22;17730;53.552;9.940;2023-04-16T09:44:36;12.50;99.90
31074;DHT22;17730;53.552;9.940;2023-04-16T09:47:05;12.40;99.90
31074;DHT22;17730;53.552;9.940;2023-04-16T09:49:36;12.30;99.90
31074;DHT22;17730;53.552;9.940;2023-04-16T09:52:07;12.30;99.90
31074;DHT22;17730;53.552;9.940;2023-04-16T09:54:33;12.20;99.90
31074;DHT22;17730;53.552;9.940;2023-04-16T09:56:59;12.20;99.90
31074;DHT22;17730;53.552;9.940;2023-04-16T09:59:26;12.30;99.90
31074;DHT22;17730;53.552;9.940;2023-04-16T10:01:57;12.30;99.90
31074;DHT22;17730;53.552;9.940;2023-04-16T10:04:23;12.10;99.90
31074;DHT22;17730;53.552;9.940;2023-04-16T10:07:01;11.90;1.00
31074;DHT22;17730;53.552;9.940;2023-04-16T10:09:30;11.80;91.40
31074;DHT22;17730;53.552;9.940;2023-04-16T10:11:56;11.90;29.00
31074;DHT22;17730;53.552;9.940;2023-04-16T10:14:21;11.90;99.90
31074;DHT22;17730;53.552;9.940;2023-04-16T10:16:47;12.00;1.00
31074;DHT22;17730;53.552;9.940;2023-04-16T10:19:12;12.00;99.90
31074;DHT22;17730;53.552;9.940;2023-04-16T10:21:38;12.00;1.60
31074;DHT22;17730;53.552;9.940;2023-04-16T10:24:04;12.00;1.00
31074;DHT22;17730;53.552;9.940;2023-04-16T10:26:29;12.00;1.00
31074;DHT22;17730;53.552;9.940;2023-04-16T10:28:55;12.10;99.90
31074;DHT22;17730;53.552;9.940;2023-04-16T10:31:22;12.30;99.90
31074;DHT22;17730;53.552;9.940;2023-04-16T10:33:48;12.40;99.90
31074;DHT22;17730;53.552;9.940;2023-04-16T10:36:14;12.30;99.90
31074;DHT22;17730;53.552;9.940;2023-04-16T10:38:43;12.10;99.90
31074;DHT22;17730;53.552;9.940;2023-04-16T10:41:09;12.30;99.90
31074;DHT22;17730;53.552;9.940;2023-04-16T10:43:39;12.20;99.90
31074;DHT22;17730;53.552;9.940;2023-04-16T10:46:21;12.10;99.90
31074;DHT22;17730;53.552;9.940;2023-04-16T10:48:47;12.20;1.00
31074;DHT22;17730;53.552;9.940;2023-04-16T10:51:23;12.00;53.70
31074;DHT22;17730;53.552;9.940;2023-04-16T10:53:49;11.90;99.90
31074;DHT22;17730;53.552;9.940;2023-04-16T10:56:16;11.90;78.30
31074;DHT22;17730;53.552;9.940;2023-04-16T10:58:46;11.90;99.90
31074;DHT22;17730;53.552;9.940;2023-04-16T11:01:12;12.10;99.90
31074;DHT22;17730;53.552;9.940;2023-04-16T11:03:42;12.10;1.00
31074;DHT22;17730;53.552;9.940;2023-04-16T11:06:15;12.30;99.90
31074;DHT22;17730;53.552;9.940;2023-04-16T11:08:45;12.00;17.50
31074;DHT22;17730;53.552;9.940;2023-04-16T11:11:10;12.10;10.40
31074;DHT22;17730;53.552;9.940;2023-04-16T11:13:36;12.30;99.90
31074;DHT22;17730;53.552;9.940;2023-04-16T11:16:02;12.20;1.00
31074;DHT22;17730;53.552;9.940;2023-04-16T11:18:28;12.20;1.00
31074;DHT22;17730;53.552;9.940;2023-04-16T11:20:53;12.30;1.00
31074;DHT22;17730;53.552;9.940;2023-04-16T11:23:19;12.30;99.90
31074;DHT22;17730;53.552;9.940;2023-04-16T11:25:45;12.10;17.30
31074;DHT22;17730;53.552;9.940;2023-04-16T11:28:10;11.90;99.90
31074;DHT22;17730;53.552;9.940;2023-04-16T11:30:36;11.80;99.90
31074;DHT22;17730;53.552;9.940;2023-04-16T11:33:02;11.70;1.00
31074;DHT22;17730;53.552;9.940;2023-04-16T11:35:28;11.70;1.00
31074;DHT22;17730;53.552;9.940;2023-04-16T11:37:57;11.70;99.90
31074;DHT22;17730;53.552;9.940;2023-04-16T11:40:22;11.90;1.00
31074;DHT22;17730;53.552;9.940;2023-04-16T11:42:48;11.90;99.90
31074;DHT22;17730;53.552;9.940;2023-04-16T11:45:14;11.70;99.90
31074;DHT22;17730;53.552;9.940;2023-04-16T11:50:42;11.70;1.00
31074;DHT22;17730;53.552;9.940;2023-04-16T11:53:03;11.60;99.90
31074;DHT22;17730;53.552;9.940;2023-04-16T11:55:29;11.70;22.20
31074;DHT22;17730;53.552;9.940;2023-04-16T11:57:55;11.60;1.00
31074;DHT22;17730;53.552;9.940;2023-04-16T12:00:21;11.50;99.90
31074;DHT22;17730;53.552;9.940;2023-04-16T12:02:50;11.50;99.90
31074;DHT22;17730;53.552;9.940;2023-04-16T12:05:35;11.60;99.90
31074;DHT22;17730;53.552;9.940;2023-04-16T12:08:04;11.80;99.90
31074;DHT22;17730;53.552;9.940;2023-04-16T12:10:31;11.90;99.90
31074;DHT22;17730;53.552;9.940;2023-04-16T12:13:09;12.10;99.90
31074;DHT22;17730;53.552;9.940;2023-04-16T12:15:49;12.10;41.80
31074;DHT22;17730;53.552;9.940;2023-04-16T12:18:18;12.20;30.00
31074;DHT22;17730;53.552;9.940;2023-04-16T12:20:44;12.30;1.00
31074;DHT22;17730;53.552;9.940;2023-04-16T12:23:21;11.90;99.90
31074;DHT22;17730;53.552;9.940;2023-04-16T12:25:46;11.70;1.00
31074;DHT22;17730;53.552;9.940;2023-04-16T12:28:14;11.80;99.90
31074;DHT22;17730;53.552;9.940;2023-04-16T12:30:49;11.80;99.90
31074;DHT22;17730;53.552;9.940;2023-04-16T12:33:16;11.70;99.90
31074;DHT22;17730;53.552;9.940;2023-04-16T12:35:42;11.70;99.90
31074;DHT22;17730;53.552;9.940;2023-04-16T12:38:10;11.80;1.00
31074;DHT22;17730;53.552;9.940;2023-04-16T12:40:36;11.80;99.90
31074;DHT22;17730;53.552;9.940;2023-04-16T12:43:02;11.90;99.90
31074;DHT22;17730;53.552;9.940;2023-04-16T12:45:28;12.10;91.00
31074;DHT22;17730;53.552;9.940;2023-04-16T12:47:53;12.20;1.00
31074;DHT22;17730;53.552;9.940;2023-04-16T12:50:20;12.10;99.90
31074;DHT22;17730;53.552;9.940;2023-04-16T12:52:45;12.10;99.90
31074;DHT22;17730;53.552;9.940;2023-04-16T12:55:11;12.10;1.00
31074;DHT22;17730;53.552;9.940;2023-04-16T12:57:36;12.00;1.00
31074;DHT22;17730;53.552;9.940;2023-04-16T13:00:02;12.00;3.80
31074;DHT22;17730;53.552;9.940;2023-04-16T13:02:30;12.00;99.90
31074;DHT22;17730;53.552;9.940;2023-04-16T13:04:56;12.00;23.70
31074;DHT22;17730;53.552;9.940;2023-04-16T13:07:22;11.90;99.90
31074;DHT22;17730;53.552;9.940;2023-04-16T13:09:49;11.80;99.90
31074;DHT22;17730;53.552;9.940;2023-04-16T13:12:14;12.00;99.90
31074;DHT22;17730;53.552;9.940;2023-04-16T13:14:39;12.00;12.70
31074;DHT22;17730;53.552;9.940;2023-04-16T13:17:05;11.90;99.90
31074;DHT22;17730;53.552;9.940;2023-04-16T13:19:30;11.90;99.90
31074;DHT22;17730;53.552;9.940;2023-04-16T13:21:57;11.70;99.90
31074;DHT22;17730;53.552;9.940;2023-04-16T13:24:22;11.90;99.90
31074;DHT22;17730;53.552;9.940;2023-04-16T13:26:49;11.90;99.90
31074;DHT22;17730;53.552;9.940;2023-04-16T13:29:14;11.90;99.90
31074;DHT22;17730;53.552;9.940;2023-04-16T13:31:40;11.90;99.90
31074;DHT22;17730;53.552;9.940;2023-04-16T13:34:05;11.80;99.90
31074;DHT22;17730;53.552;9.940;2023-04-16T13:36:31;11.90;99.90
31074;DHT22;17730;53.552;9.940;2023-04-16T13:38:57;12.00;99.90
31074;DHT22;17730;53.552;9.940;2023-04-16T13:41:23;12.00;99.90
31074;DHT22;17730;53.552;9.940;2023-04-16T13:43:49;12.00;99.90
31074;DHT22;17730;53.552;9.940;2023-04-16T13:46:14;11.90;99.90
31074;DHT22;17730;53.552;9.940;2023-04-16T13:48:40;12.00;99.90
31074;DHT22;17730;53.552;9.940;2023-04-16T13:51:05;11.90;99.90
31074;DHT22;17730;53.552;9.940;2023-04-16T13:53:31;11.90;99.90
31074;DHT22;17730;53.552;9.940;2023-04-16T13:55:56;11.80;99.90
31074;DHT22;17730;53.552;9.940;2023-04-16T13:58:22;11.90;99.90
31074;DHT22;17730;53.552;9.940;2023-04-16T14:00:47;11.80;99.90
31074;DHT22;17730;53.552;9.940;2023-04-16T14:03:12;11.70;99.90
31074;DHT22;17730;53.552;9.940;2023-04-16T14:05:38;11.70;1.00
31074;DHT22;17730;53.552;9.940;2023-04-16T14:08:03;11.70;1.00
31074;DHT22;17730;53.552;9.940;2023-04-16T14:10:29;11.80;1.00
31074;DHT22;17730;53.552;9.940;2023-04-16T14:12:55;11.90;99.90
31074;DHT22;17730;53.552;9.940;2023-04-16T14:15:21;12.00;99.90
31074;DHT22;17730;53.552;9.940;2023-04-16T14:17:46;11.80;99.90
31074;DHT22;17730;53.552;9.940;2023-04-16T14:20:12;11.70;99.90
31074;DHT22;17730;53.552;9.940;2023-04-16T14:22:38;11.70;1.00
31074;DHT22;17730;53.552;9.940;2023-04-16T14:25:04;11.90;99.90
31074;DHT22;17730;53.552;9.940;2023-04-16T14:27:30;12.00;99.90
31074;DHT22;17730;53.552;9.940;2023-04-16T14:29:56;12.00;46.10
31074;DHT22;17730;53.552;9.940;2023-04-16T14:32:21;11.90;43.30
31074;DHT22;17730;53.552;9.940;2023-04-16T14:34:47;11.80;99.90
31074;DHT22;17730;53.552;9.940;2023-04-16T14:37:13;11.80;99.90
31074;DHT22;17730;53.552;9.940;2023-04-16T14:39:40;11.80;99.90
31074;DHT22;17730;53.552;9.940;2023-04-16T14:42:05;11.70;99.90
31074;DHT22;17730;53.552;9.940;2023-04-16T14:44:31;11.70;99.90
31074;DHT22;17730;53.552;9.940;2023-04-16T14:46:56;11.70;99.90
31074;DHT22;17730;53.552;9.940;2023-04-16T14:49:22;11.80;99.90
31074;DHT22;17730;53.552;9.940;2023-04-16T14:51:47;11.80;99.90
31074;DHT22;17730;53.552;9.940;2023-04-16T14:54:13;11.90;99.90
31074;DHT22;17730;53.552;9.940;2023-04-16T14:56:38;12.00;99.90
31074;DHT22;17730;53.552;9.940;2023-04-16T14:59:05;11.90;76.30
31074;DHT22;17730;53.552;9.940;2023-04-16T15:01:31;11.80;99.90
31074;DHT22;17730;53.552;9.940;2023-04-16T15:03:57;11.70;99.90
31074;DHT22;17730;53.552;9.940;2023-04-16T15:06:23;11.70;61.70
31074;DHT22;17730;53.552;9.940;2023-04-16T15:08:49;11.60;99.90
31074;DHT22;17730;53.552;9.940;2023-04-16T15:11:14;11.60;99.90
31074;DHT22;17730;53.552;9.940;2023-04-16T15:13:40;11.70;99.90
31074;DHT22;17730;53.552;9.940;2023-04-16T15:16:05;11.70;1.00
31074;DHT22;17730;53.552;9.940;2023-04-16T15:18:31;11.70;1.00
31074;DHT22;17730;53.552;9.940;2023-04-16T15:20:56;11.80;99.90
31074;DHT22;17730;53.552;9.940;2023-04-16T15:23:22;11.80;99.90
31074;DHT22;17730;53.552;9.940;2023-04-16T15:25:47;11.90;99.90
31074;DHT22;17730;53.552;9.940;2023-04-16T15:28:13;11.70;99.90
31074;DHT22;17730;53.552;9.940;2023-04-16T15:30:39;11.80;99.90
31074;DHT22;17730;53.552;9.940;2023-04-16T15:33:04;11.80;99.90
31074;DHT22;17730;53.552;9.940;2023-04-16T15:35:30;11.80;99.90